EPGDEPSC

Guest
Details From EPGD - Lech Walesa
To EPSC - Goleniow
Flight Number -
Tags Generated
Created
Modified
Stats Distance 134 nm / 249 km
Max Altitude 0 ft / 0 m
Waypoints 2
Social Downloads 2
Likes 0
Share VATSIM

Download

Looking for another format? Having issues loading an existing format? Contact us
Advertisement - Login to hide

Notes

Generated

Route

EPGD EPSC

ID Type Via Altitude Latitude Longitude Leg Dist Tot Dist Heading (true) Name
O EPGD APT - 0 ft / 0 m 54.38107˚ 18.45205˚ - 0 nm - -
O EPSC APT - 0 ft / 0 m 53.59208˚ 14.88792˚ 134 nm 134 nm 251° / 248° -

Altitude Profile

Advertisement - Login to hide

EPGD

Details ICAO EPGD (GDN)
Name LECH WALESA
Region Poland
Timezone Europe/Warsaw (UTC+1.0)
Stats Elevation 489 ft / 149 m (AMSL)
Location 54.376167° 18.471884°
Runways 1
Magnetic Variation 5.450° E

METAR

EPGD 141500Z 21009KT 9999 BKN014 03/01 Q0988 R11/290095

Decode

TAF

TAF TAF EPGD 141130Z 1412/1512 20013KT 9999 BKN020 TEMPO 1412/1420 22015G25KT TEMPO 1420/1507 4000 -RA RASN BKN008 BKN015

Decode

Departure Runways

ID Width Length Bearing (true) Bearing (mag) Surface Threshold Offset Overrun Length
11 148 ft / 45 m 9,158 ft / 2,791 m 112.96° 107.51° Asphalt 0 ft / 0 m 0 ft / 0 m
29 148 ft / 45 m 9,158 ft / 2,791 m 293.00° 287.55° Asphalt 0 ft / 0 m 0 ft / 0 m

EPSC

Details ICAO EPSC (SZZ)
Name GOLENIOW
Region Poland
Timezone Europe/Warsaw (UTC+1.0)
Stats Elevation 154 ft / 47 m (AMSL)
Location 53.584731° 14.902195°
Runways 1
Magnetic Variation 4.298° E

METAR

EPSC 141500Z 21010KT 9999 FEW015 SCT021 BKN030 04/01 Q0989

Decode

TAF

TAF EPSC 141130Z 1412/1512 23011KT 9999 BKN017 TEMPO 1415/1501 4500 -RA BR BKN008 BECMG 1502/1505 17005KT PROB40 1505/1510 2000 BR BKN004

Decode

Destination Runways

ID Width Length Bearing (true) Bearing (mag) Surface Threshold Offset Overrun Length
13 197 ft / 60 m 8,187 ft / 2,495 m 130.94° 126.64° Concrete 0 ft / 0 m 0 ft / 0 m
31 197 ft / 60 m 8,187 ft / 2,495 m 310.96° 306.66° Concrete 0 ft / 0 m 0 ft / 0 m

Approach Navaids

Runway Type Ident Frequency Range Bearing (true) Bearing (mag) Slope Elevation
31 Localiser SZC 110.50 MHz 18 nm / 33 km 310.93° 306.64° - 154 ft / 47 m (AMSL)
31 Glidescope SZC 110.50 MHz 10 nm / 19 km 310.95° 306.65° 3.00° 154 ft / 47 m (AMSL)
31 DME SZC 110.50 MHz 18 nm / 33 km - - - 197 ft / 60 m (AMSL)

Popular Alternatives